Aérodrome :
LOGIN :

S'inscrire | Disclaimer

   EN    FR    IT 

 










Légende :    VFR   VFR Marginal   IFR   IFR Intensif   IFR Très Intensif
Visi : 
Plafond : 
>= 8 km
>= 3000ft
5 à 8 km
1000 à 3000 ft
1500m à 5 km
500 à 1000 ft
800 à 1500m
200 à 500 ft
< 800m
< 200 ft
Symboles :   Orages  Brouillard  Fortes neiges  Fortes précipitations  Vent > 20 kt
SIGMETs :   Divers  Orages  Givrage  Turbulence  Onde Orograph.  Cendres Volcan.






- Altitude de l'aérodrome : 13 ft
- Code IATA : SNR


LFRZ - St-Nazaire

DERNIER METAR :
  • 250700Z AUTO 12007KT 5000 BR NSC 05/04 Q1017 TEMPO BKN004

METARs EXPIRÉS :
  • 250630Z AUTO 11009KT 5000 BR NSC 05/04 Q1017 TEMPO BKN004
  • 250600Z AUTO 11009KT 5000 BR NSC 05/04 Q1017 TEMPO BKN004
  • 250530Z AUTO 11011KT 6000 NSC 05/04 Q1017 TEMPO 3000 BR BKN004
  • 250500Z AUTO 11012KT 6000 NSC 05/05 Q1017 TEMPO 3000 BR VV///
  • 250430Z AUTO 11012KT 4600 2200 BR NSC 05/05 Q1017 TEMPO 0600 FG VV///

TAF TAF LFRZ
Valide du 25 à 06h jusqu'au 26 à 06h UTC


250500Z 2506/2606 12010KT 8000 SCT008 BKN060
TEMPO 2506/2512 3000 BR BKN004
PROB30
TEMPO 2512/2521 4000 RADZ BKN014
BECMG 2521/2524 18007KT
TEMPO 2521/2606 3000 DZRA BKN004
PROB30
TEMPO 2521/2606 0400 FG VV///



MET'MAP, la Météo Aéronautique d'un coup d'oeil ! - Copyright ORBIFLY Décembre 2007 - Disclaimer

ORBIFLY MET'MAP TEAM :

Programmation & Développement : Alexandra Zaïnal
Sur une idée originale de : Baudouin d'Aumeries
Assistance à la programmation : Marc-Olivier Méhu
Soutien technique & logistique : Manuel Goepfert

Contact : metmap@orbifly.com




SOURCES & CREDITS :

   NOAA